Airfield :
LOGIN :

Register | Disclaimer

   EN    FR    IT 

 










Legend :    VFR   Marginal VFR   IFR   Intensive IFR   Very Intensive IFR
Visi :
Ceiling :
>= 8 km
>= 3000ft
5 to 8 km
1000 to 3000 ft
1500m to 5 km
500 to 1000 ft
800 to 1500m
200 to 500 ft
< 800m
< 200 ft
Symbols :   Thunderstorms  Fog  Heavy snow  Heavy precipitations  Wind > 20 kt
SIGMETs :     Misc.  Thunderstorms  Icing  Turbulence  Mountain Waves  Volcanic Ashes






- Airport Elevation : 405 ft
- IATA code : ODH


EGVO - RAF Odiham

CURRENT METAR :
  • 221050Z 02014KT 9999 FEW034 BKN070 14/06 Q1020 NOSIG RMK BLU BLU

EXPIRED METARs :
  • 221020Z 01016KT 9999 FEW030 BKN070 14/07 Q1020 NOSIG RMK BLU BLU
  • 220950Z 02015KT 9999 FEW030 BKN250 13/07 Q1020 NOSIG RMK BLU BLU
  • 220910Z 02012KT 9999 FEW022 SCT080 BKN250 12/07 Q1020 NOSIG RMK BLU BLU
  • 220850Z 02012KT 9999 -RA SCT022 SCT080 BKN100 12/08 Q1020 BECMG FEW025 RMK WHT BECMG BLU
  • 220820Z 02011KT 9999 SCT019 BKN100 12/08 Q1020 BECMG FEW025 RMK WHT BECMG BLU

TAF AMD TAF EGVO
Valid from the 22 at 09:00 until the 22 at 21:00 UTC


220826Z 2209/2221 01014KT 9999 FEW025
PROB40
TEMPO 2209/2211 SCT024



MET'MAP, your aeronautical weather chart ! - Copyright ORBIFLY December 2007 - Disclaimer

ORBIFLY MET'MAP TEAM :

Programming & Development : Alexandra Zaïnal
Concept & original design : Baudouin d'Aumeries
Assistance for programming : Marc-Olivier Méhu
Technical & hardware support : Manuel Goepfert

Contact : metmap@orbifly.com




SOURCES & CREDITS :

   NOAA